SBOSBO BOM / VABB
Speedbird OnlineSpeedbird Online BOM / VABB

Chhatrapati Shivaji International Airport
02:26 29°C

Location Mumbai, India
Latitude: 19.0886993408
Longitude: 72.8678970337
Local Time 02:26 on 21 Apr 2024
UTC +5.5 hours (Asia/Calcutta)
Currency £1 equals INR 103.12
METAR VABB 202030Z 30004KT 2500 HZ NSC 29/23 Q1007 NOSIG
TAF TAF VABB 202000Z 2021/2106 04004KT 2500 HZ FEW100 BECMG 2104/2106 34008KT 3000 HZ FU NSC
Weather As Of 21 Apr 2024 02:26
Description Haze
Wind 7 km/h from North-West (300°)
Cloud Cover 3%
Precipitation Rain: none, Snow: none
Sunrise 06:16
Sunset 18:57
NOTAM 49 active NOTAM
Rotations During the last 90 days there were
225 flights from LHR
237 flights to LHR
1 flights to DEL
1 flights to HYD
Lounges Adani Lounge – East Wing, Terminal 2
Adani Lounge, Terminal 2, Level 3
Web Airport Website | Wikipedia
Codes IATA: BOM
ICAO: VABB
Altitude 12 Meter / 39 Feet
Distance 7,173 KM / 4,457 Miles
from London.
Runways
RunwayLength (m)Surface
093448Asphalt
142871Asphalt
273448Asphalt
322871Asphalt
Radio
TypeDescriptionFrequency
ACCMUMBAI120.5
APPMUMBAI APP127.9
ATISMUMBAI ATIS126.4
CLDMUMBAI CLR DELIVERY121.85
GNDMUMBAI GND121.9
RDOMUMBAI RDO1008.4
RDRRDR119.3
TWRMUMBAI TWR118.1
Live ATC



Support Speedbird Online

© 2017-2024 Speedbird Online